createdAt,value
2022-07-29T00:00:13.561Z,100074.88
2022-07-29T00:03:00.508Z,100078.86
2022-07-29T00:05:30.406Z,100077.93
2022-07-29T00:08:02.539Z,100074.80
2022-07-29T00:10:29.495Z,100073.75
2022-07-29T00:12:58.447Z,100073.93
2022-07-29T00:15:25.779Z,100075.71
2022-07-29T00:17:52.737Z,100072.18
2022-07-29T00:20:19.694Z,100072.64
2022-07-29T00:22:46.824Z,100072.78
2022-07-29T00:25:21.064Z,100074.59
2022-07-29T00:27:50.531Z,100075.48
2022-07-29T00:30:17.860Z,100082.67
2022-07-29T00:32:44.940Z,100079.73
2022-07-29T00:35:30.199Z,100080.31
2022-07-29T00:37:57.350Z,100077.52
2022-07-29T00:40:29.674Z,100076.02
2022-07-29T00:42:56.655Z,100077.48
2022-07-29T00:45:23.807Z,100075.73
2022-07-29T00:47:52.997Z,100074.41
2022-07-29T00:50:19.932Z,100075.05
2022-07-29T00:52:47.252Z,100071.60
2022-07-29T00:55:16.372Z,100063.46
2022-07-29T00:57:53.673Z,100064.08
2022-07-29T01:00:26.940Z,100063.95
2022-07-29T01:02:54.609Z,100064.30
2022-07-29T01:05:24.616Z,100063.35
2022-07-29T01:07:57.394Z,100061.71
2022-07-29T01:10:47.879Z,100070.97
2022-07-29T01:13:24.505Z,100068.31
2022-07-29T01:16:01.944Z,100065.42
2022-07-29T01:18:46.681Z,100063.14
2022-07-29T01:21:51.334Z,100054.55
2022-07-29T01:24:44.506Z,100051.52
2022-07-29T01:27:53.674Z,100050.01
2022-07-29T01:30:25.531Z,100047.19
2022-07-29T01:33:00.886Z,100048.71
2022-07-29T01:35:41.284Z,100050.99
2022-07-29T01:38:21.092Z,100047.31
2022-07-29T01:40:59.372Z,100044.48
2022-07-29T01:43:46.164Z,100041.35
2022-07-29T01:46:20.766Z,100041.67
2022-07-29T01:48:51.398Z,100042.55
2022-07-29T01:51:29.776Z,100045.02
2022-07-29T01:54:02.710Z,100045.70
2022-07-29T01:56:33.247Z,100045.05
2022-07-29T01:59:05.982Z,100036.74
2022-07-29T02:01:35.498Z,100032.13
2022-07-29T02:04:08.435Z,100028.30
2022-07-29T02:06:48.224Z,100023.57
2022-07-29T02:09:26.498Z,100024.16
2022-07-29T02:11:56.587Z,100022.42
2022-07-29T02:14:25.050Z,100021.27
2022-07-29T02:17:04.414Z,100022.46
2022-07-29T02:19:40.895Z,100024.17
2022-07-29T02:22:11.835Z,100021.46
2022-07-29T02:24:45.556Z,100020.82
2022-07-29T02:27:14.889Z,100018.58
2022-07-29T02:29:42.676Z,100014.49
2022-07-29T02:32:37.650Z,100009.90
2022-07-29T02:35:15.430Z,100008.86
2022-07-29T02:38:06.386Z,100006.52
2022-07-29T02:40:40.503Z,100004.05
2022-07-29T02:43:09.660Z,99998.97
2022-07-29T02:45:37.228Z,99998.11
2022-07-29T02:48:11.075Z,99995.67
2022-07-29T02:51:09.021Z,99993.93
2022-07-29T02:53:45.071Z,99991.13
2022-07-29T02:56:17.648Z,99989.30
2022-07-29T02:58:56.730Z,99994.04
2022-07-29T03:01:26.237Z,99989.49
2022-07-29T03:03:55.087Z,99990.96
2022-07-29T03:06:28.879Z,99993.16
2022-07-29T03:09:13.562Z,99994.29
2022-07-29T03:11:49.828Z,99991.94
2022-07-29T03:14:19.794Z,99994.21
2022-07-29T03:16:48.569Z,99994.73
2022-07-29T03:19:16.120Z,99995.90
2022-07-29T03:21:43.521Z,99997.52
2022-07-29T03:24:32.582Z,100003.39
2022-07-29T03:27:00.110Z,100003.08
2022-07-29T03:29:33.781Z,100005.77
2022-07-29T03:32:08.271Z,100007.02
2022-07-29T03:34:38.352Z,100003.29
2022-07-29T03:37:07.818Z,100003.56
2022-07-29T03:39:40.319Z,100004.16
2022-07-29T03:42:11.042Z,100008.29
2022-07-29T03:44:41.130Z,100003.93
2022-07-29T03:47:11.767Z,100003.47
2022-07-29T03:49:42.405Z,100003.04
2022-07-29T03:52:10.307Z,100008.35
2022-07-29T03:54:46.932Z,100006.77
2022-07-29T03:57:28.959Z,100010.42
2022-07-29T03:59:56.723Z,100012.75
2022-07-29T04:02:30.820Z,100017.82
2022-07-29T04:04:58.160Z,100013.35
2022-07-29T04:07:24.993Z,100018.52
2022-07-29T04:09:52.257Z,100015.91
2022-07-29T04:12:19.329Z,100014.78
2022-07-29T04:14:55.131Z,100010.09
2022-07-29T04:17:21.979Z,100009.78
2022-07-29T04:19:49.178Z,100009.48
2022-07-29T04:22:18.924Z,100010.01
2022-07-29T04:24:47.085Z,100008.45
2022-07-29T04:27:14.118Z,100008.32
2022-07-29T04:29:57.263Z,100010.52
2022-07-29T04:32:32.929Z,100011.40
2022-07-29T04:35:01.167Z,100004.88
2022-07-29T04:37:28.686Z,100010.58
2022-07-29T04:39:55.508Z,100010.08
2022-07-29T04:42:27.754Z,100008.90
2022-07-29T04:45:04.457Z,100007.30
2022-07-29T04:47:37.215Z,100009.30
2022-07-29T04:50:05.787Z,100008.15
2022-07-29T04:52:32.917Z,100012.42
2022-07-29T04:55:00.268Z,100014.16
2022-07-29T04:57:33.340Z,100014.66
2022-07-29T05:00:00.895Z,100018.86
2022-07-29T05:02:30.715Z,100017.06
2022-07-29T05:05:02.661Z,100018.59
2022-07-29T05:07:41.941Z,100015.52
2022-07-29T05:10:19.737Z,100017.62
2022-07-29T05:12:48.087Z,100015.68
2022-07-29T05:16:08.040Z,100010.02
2022-07-29T05:19:03.652Z,100009.15
2022-07-29T05:21:49.365Z,100008.27
2022-07-29T05:24:23.920Z,100010.98
2022-07-29T05:27:30.380Z,100012.52
2022-07-29T05:30:17.753Z,100011.80
2022-07-29T05:33:34.693Z,100015.45
2022-07-29T05:36:18.202Z,100017.38
2022-07-29T05:38:58.248Z,100014.17
2022-07-29T05:41:40.468Z,100010.73
2022-07-29T05:44:41.907Z,100007.67
2022-07-29T05:47:20.084Z,100008.58
2022-07-29T05:49:52.952Z,100010.00
2022-07-29T05:52:20.123Z,100009.38
2022-07-29T05:54:47.785Z,100005.77
2022-07-29T05:57:24.554Z,100010.30
2022-07-29T05:59:52.206Z,100008.92
2022-07-29T06:02:19.618Z,100007.59
2022-07-29T06:05:01.439Z,100006.95
2022-07-29T06:07:50.725Z,100009.70
2022-07-29T06:10:23.856Z,100008.08
2022-07-29T06:12:53.950Z,100007.51
2022-07-29T06:15:21.133Z,100009.19
2022-07-29T06:18:00.777Z,100008.95
2022-07-29T06:20:33.186Z,100019.73
2022-07-29T06:23:00.869Z,100013.10
2022-07-29T06:25:35.303Z,100010.66
2022-07-29T06:28:03.968Z,100011.02
2022-07-29T06:30:33.486Z,100008.81
2022-07-29T06:33:04.377Z,100011.42
2022-07-29T06:35:40.989Z,100012.10
2022-07-29T06:38:30.460Z,100016.01
2022-07-29T06:41:02.899Z,100012.17
2022-07-29T06:43:42.649Z,100015.73
2022-07-29T06:46:20.933Z,100015.16
2022-07-29T06:48:48.415Z,100017.59
2022-07-29T06:51:16.860Z,100019.09
2022-07-29T06:53:59.500Z,100019.24
2022-07-29T06:56:38.849Z,100018.45
2022-07-29T06:59:11.028Z,100017.35
2022-07-29T07:01:41.019Z,100023.89
2022-07-29T07:04:11.886Z,100025.83
2022-07-29T07:06:42.057Z,100025.88
2022-07-29T07:09:09.161Z,100025.73
2022-07-29T07:11:39.891Z,100027.48
2022-07-29T07:14:07.179Z,100029.07
2022-07-29T07:16:36.992Z,100029.98
2022-07-29T07:19:04.106Z,100025.99
2022-07-29T07:21:33.058Z,100026.35
2022-07-29T07:24:03.435Z,100029.35
2022-07-29T07:26:40.791Z,100027.19
2022-07-29T07:29:13.618Z,100029.66
2022-07-29T07:31:40.951Z,100026.48
2022-07-29T07:34:28.420Z,100024.48
2022-07-29T07:36:57.789Z,100023.12
2022-07-29T07:39:25.350Z,100021.16
2022-07-29T07:41:53.014Z,100018.14
2022-07-29T07:44:26.221Z,100020.79
2022-07-29T07:46:56.755Z,100022.52
2022-07-29T07:49:34.329Z,100020.93
2022-07-29T07:52:01.601Z,100018.58
2022-07-29T07:54:28.842Z,100020.22
2022-07-29T07:56:55.869Z,100015.95
2022-07-29T07:59:23.421Z,100016.00
2022-07-29T08:01:55.904Z,100016.69
2022-07-29T08:04:28.711Z,100020.27
2022-07-29T08:06:57.973Z,100017.14
2022-07-29T08:09:29.614Z,100016.04
2022-07-29T08:12:02.804Z,100016.67
2022-07-29T08:14:31.324Z,100014.81
2022-07-29T08:17:01.398Z,100008.67
2022-07-29T08:19:31.634Z,100007.75
2022-07-29T08:22:01.402Z,100008.98
2022-07-29T08:24:44.689Z,100005.80
2022-07-29T08:27:43.342Z,99997.95
2022-07-29T08:30:25.927Z,100005.13
2022-07-29T08:33:10.208Z,99998.10
2022-07-29T08:35:50.949Z,99995.95
2022-07-29T08:38:29.801Z,100002.89
2022-07-29T08:41:11.165Z,99997.47
2022-07-29T08:43:42.960Z,100001.70
2022-07-29T08:46:41.216Z,100001.77
2022-07-29T08:49:23.074Z,100003.02
2022-07-29T08:51:54.969Z,100006.64
2022-07-29T08:54:24.103Z,100003.08
2022-07-29T08:56:54.914Z,100004.52
2022-07-29T08:59:31.274Z,100004.97
2022-07-29T09:02:24.202Z,100003.46
2022-07-29T09:04:55.250Z,100001.73
2022-07-29T09:07:36.712Z,100008.69
2022-07-29T09:10:10.291Z,100006.20
2022-07-29T09:12:42.109Z,100007.15
2022-07-29T09:15:29.674Z,100008.00
2022-07-29T09:18:20.480Z,100005.61
2022-07-29T09:21:12.049Z,100004.66
2022-07-29T09:24:05.509Z,99999.82
2022-07-29T09:26:45.969Z,100000.55
2022-07-29T09:29:20.713Z,100001.38
2022-07-29T09:32:12.420Z,99998.95
2022-07-29T09:34:43.651Z,100000.29
2022-07-29T09:37:33.369Z,99994.42
2022-07-29T09:40:15.036Z,99987.93
2022-07-29T09:42:45.667Z,99988.97
2022-07-29T09:45:30.424Z,99992.94
2022-07-29T09:48:16.334Z,99987.86
2022-07-29T09:50:45.324Z,99982.34
2022-07-29T09:53:12.624Z,99986.13
2022-07-29T09:56:11.830Z,99978.30
2022-07-29T09:58:41.345Z,99978.10
2022-07-29T10:01:11.679Z,99972.77
2022-07-29T10:03:53.032Z,99973.21
2022-07-29T10:06:20.014Z,99972.46
2022-07-29T10:08:50.398Z,99976.57
2022-07-29T10:11:19.247Z,99972.65
2022-07-29T10:13:51.506Z,99975.56
2022-07-29T10:16:18.902Z,99970.34
2022-07-29T10:18:47.492Z,99967.07
2022-07-29T10:21:35.275Z,99965.17
2022-07-29T10:24:14.861Z,99959.71
2022-07-29T10:26:47.716Z,99961.80
2022-07-29T10:29:17.470Z,99955.22
2022-07-29T10:32:15.814Z,99954.79
2022-07-29T10:35:25.401Z,99954.13
2022-07-29T10:38:09.949Z,99950.86
2022-07-29T10:41:08.610Z,99950.85
2022-07-29T10:43:46.435Z,99951.44
2022-07-29T10:46:15.240Z,99949.89
2022-07-29T10:49:04.551Z,99947.94
2022-07-29T10:52:02.018Z,99937.58
2022-07-29T10:54:42.451Z,99937.41
2022-07-29T10:57:53.251Z,99929.13
2022-07-29T11:00:18.613Z,99930.36
2022-07-29T11:02:55.547Z,99934.00
2022-07-29T11:05:31.904Z,99935.85
2022-07-29T11:08:19.447Z,99926.15
2022-07-29T11:10:52.192Z,99920.45
2022-07-29T11:13:46.965Z,99930.83
2022-07-29T11:16:22.652Z,99923.71
2022-07-29T11:19:11.584Z,99920.28
2022-07-29T11:24:50.186Z,99924.60
2022-07-29T11:27:23.413Z,99926.80
2022-07-29T11:30:04.284Z,99923.66
2022-07-29T11:32:41.648Z,99924.70
2022-07-29T11:35:40.336Z,99928.71
2022-07-29T11:38:23.002Z,99924.02
2022-07-29T11:41:21.154Z,99926.08
2022-07-29T11:43:53.147Z,99932.39
2022-07-29T11:46:47.197Z,99929.93
2022-07-29T11:49:22.096Z,99928.98
2022-07-29T11:52:03.680Z,99920.16
2022-07-29T11:54:57.722Z,99915.64
2022-07-29T11:58:04.236Z,99915.90
2022-07-29T12:01:17.043Z,99912.53
2022-07-29T12:04:08.817Z,99915.05
2022-07-29T12:06:42.486Z,99916.96
2022-07-29T12:09:16.505Z,99909.93
2022-07-29T12:11:45.106Z,99908.70
2022-07-29T12:14:32.685Z,99913.55
2022-07-29T12:17:02.253Z,99903.63
2022-07-29T12:19:29.809Z,99907.92
2022-07-29T12:22:24.501Z,99906.27
2022-07-29T12:25:02.209Z,99911.50
2022-07-29T12:27:48.772Z,99900.86
2022-07-29T12:30:17.471Z,99900.74
2022-07-29T12:32:55.138Z,99901.65
2022-07-29T12:35:58.101Z,99888.14
2022-07-29T12:38:37.125Z,99892.98
2022-07-29T12:41:04.925Z,99889.19
2022-07-29T12:43:56.875Z,99888.09
2022-07-29T12:46:24.401Z,99889.66
2022-07-29T12:48:56.020Z,99884.48
2022-07-29T12:51:38.035Z,99881.20
2022-07-29T12:54:14.096Z,99872.15
2022-07-29T12:56:45.813Z,99872.64
2022-07-29T12:59:21.608Z,99877.60
2022-07-29T13:02:10.872Z,99872.52
2022-07-29T13:05:06.881Z,99880.70
2022-07-29T13:07:55.894Z,99864.13
2022-07-29T13:10:45.830Z,99863.30
2022-07-29T13:13:19.046Z,99871.11
2022-07-29T13:16:08.603Z,99863.25
2022-07-29T13:18:39.347Z,99858.23
2022-07-29T13:21:16.597Z,99862.69
2022-07-29T13:23:45.747Z,99865.11
2022-07-29T13:26:13.150Z,99859.72
2022-07-29T13:28:40.492Z,99858.83
2022-07-29T13:31:10.954Z,99853.16
2022-07-29T13:33:37.706Z,99849.67
2022-07-29T13:36:04.644Z,99843.65
2022-07-29T13:38:31.533Z,99845.38
2022-07-29T13:40:58.966Z,99843.73
2022-07-29T13:43:26.566Z,99840.83
2022-07-29T13:45:53.654Z,99834.08
2022-07-29T13:48:28.480Z,99830.16
2022-07-29T13:51:02.823Z,99830.76
2022-07-29T13:53:31.037Z,99827.96
2022-07-29T13:55:59.165Z,99824.35
2022-07-29T13:58:34.190Z,99823.26
2022-07-29T14:01:04.780Z,99823.14
2022-07-29T14:03:32.038Z,99815.42
2022-07-29T14:06:01.530Z,99818.15
2022-07-29T14:08:28.786Z,99821.94
2022-07-29T14:10:55.635Z,99818.80
2022-07-29T14:13:25.542Z,99821.29
2022-07-29T14:15:53.363Z,99822.40
2022-07-29T14:18:22.688Z,99818.73
2022-07-29T14:20:52.244Z,99818.98
2022-07-29T14:23:19.599Z,99824.34
2022-07-29T14:25:47.261Z,99819.88
2022-07-29T14:28:16.386Z,99817.89
2022-07-29T14:30:43.614Z,99815.48
2022-07-29T14:33:11.485Z,99812.44
2022-07-29T14:35:38.374Z,99818.14
2022-07-29T14:38:05.551Z,99813.03
2022-07-29T14:40:32.460Z,99809.91
2022-07-29T14:42:59.630Z,99810.25
2022-07-29T14:45:28.661Z,99805.88
2022-07-29T14:47:57.345Z,99801.23
2022-07-29T14:50:31.314Z,99803.54
2022-07-29T14:53:00.719Z,99807.11
2022-07-29T14:55:27.987Z,99804.08
2022-07-29T14:58:05.751Z,99809.54
2022-07-29T15:00:37.249Z,99805.59
2022-07-29T15:03:04.322Z,99804.68
2022-07-29T15:05:31.977Z,99806.14
2022-07-29T15:07:59.322Z,99799.82
2022-07-29T15:10:29.775Z,99798.42
2022-07-29T15:12:59.876Z,99789.42
2022-07-29T15:15:27.332Z,99795.08
2022-07-29T15:17:57.412Z,99799.29
2022-07-29T15:20:26.352Z,99794.60
2022-07-29T15:22:56.829Z,99790.71
2022-07-29T15:25:24.564Z,99790.30
2022-07-29T15:28:00.568Z,99782.29
2022-07-29T15:30:46.531Z,99784.23
2022-07-29T15:33:22.215Z,99787.58
2022-07-29T15:35:49.263Z,99789.57
2022-07-29T15:38:28.736Z,99786.08
2022-07-29T15:41:05.034Z,99790.64
2022-07-29T15:43:35.836Z,99783.38
2022-07-29T15:46:21.446Z,99782.09
2022-07-29T15:48:49.421Z,99784.54
2022-07-29T15:51:19.360Z,99783.23
2022-07-29T15:53:53.592Z,99781.48
2022-07-29T15:56:29.538Z,99777.97
2022-07-29T15:59:02.183Z,99780.61
2022-07-29T16:01:29.732Z,99785.12
2022-07-29T16:04:02.579Z,99776.29
2022-07-29T16:06:34.550Z,99781.08
2022-07-29T16:09:05.225Z,99778.73
2022-07-29T16:11:32.146Z,99781.90
2022-07-29T16:13:59.724Z,99785.08
2022-07-29T16:16:41.405Z,99777.54
2022-07-29T16:19:26.155Z,99779.02
2022-07-29T16:21:59.861Z,99775.27
2022-07-29T16:24:29.797Z,99780.39
2022-07-29T16:27:02.887Z,99778.52
2022-07-29T16:29:29.722Z,99778.65
2022-07-29T16:31:57.559Z,99778.01
2022-07-29T16:34:24.582Z,99775.91
2022-07-29T16:36:51.397Z,99774.34
2022-07-29T16:39:21.651Z,99767.34
2022-07-29T16:41:48.583Z,99770.83
2022-07-29T16:44:18.405Z,99771.20
2022-07-29T16:46:45.760Z,99772.50
2022-07-29T16:49:27.580Z,99770.13
2022-07-29T16:51:54.913Z,99765.87
2022-07-29T16:54:22.548Z,99767.14
2022-07-29T16:56:53.276Z,99768.92
2022-07-29T16:59:32.222Z,99768.48
2022-07-29T17:02:02.340Z,99762.27
2022-07-29T17:04:58.742Z,99763.45
2022-07-29T17:07:39.906Z,99757.81
2022-07-29T17:10:12.909Z,99756.25
2022-07-29T17:12:43.161Z,99752.45
2022-07-29T17:15:18.022Z,99754.75
2022-07-29T17:17:56.470Z,99760.02
2022-07-29T17:20:35.383Z,99757.44
2022-07-29T17:23:31.978Z,99762.79
2022-07-29T17:26:11.050Z,99765.89
2022-07-29T17:28:49.092Z,99766.55
2022-07-29T17:31:30.965Z,99768.14
2022-07-29T17:34:03.438Z,99769.34
2022-07-29T17:36:39.877Z,99769.02
2022-07-29T17:39:17.611Z,99766.55
2022-07-29T17:42:07.722Z,99767.39
2022-07-29T17:44:47.282Z,99768.27
2022-07-29T17:47:15.921Z,99768.58
2022-07-29T17:49:49.018Z,99762.48
2022-07-29T17:52:17.901Z,99763.05
2022-07-29T17:55:02.187Z,99764.40
2022-07-29T17:57:34.405Z,99762.27
2022-07-29T18:00:02.091Z,99764.11
2022-07-29T18:02:43.318Z,99767.36
2022-07-29T18:05:13.494Z,99769.86
2022-07-29T18:07:40.685Z,99765.66
2022-07-29T18:10:28.212Z,99767.96
2022-07-29T18:12:58.364Z,99773.43
2022-07-29T18:15:25.865Z,99778.18
2022-07-29T18:17:57.617Z,99776.79
2022-07-29T18:20:31.273Z,99777.41
2022-07-29T18:22:59.188Z,99776.59
2022-07-29T18:25:30.657Z,99777.50
2022-07-29T18:28:04.270Z,99775.10
2022-07-29T18:30:36.699Z,99772.58
2022-07-29T18:33:21.856Z,99773.76
2022-07-29T18:35:52.291Z,99774.92
2022-07-29T18:38:55.638Z,99776.67
2022-07-29T18:41:31.001Z,99778.12
2022-07-29T18:44:03.768Z,99778.80
2022-07-29T18:46:32.003Z,99774.96
2022-07-29T18:49:12.823Z,99771.09
2022-07-29T18:51:57.589Z,99771.53
2022-07-29T18:54:35.658Z,99773.46
2022-07-29T18:57:56.344Z,99778.15
2022-07-29T18:59:53.832Z,99785.42
2022-07-29T19:02:21.744Z,99788.77
2022-07-29T19:04:55.293Z,99790.35
2022-07-29T19:07:26.633Z,99793.75
2022-07-29T19:10:07.542Z,99790.27
2022-07-29T19:12:45.692Z,99791.23
2022-07-29T19:15:12.668Z,99790.86
2022-07-29T19:17:55.619Z,99792.00
2022-07-29T19:20:29.125Z,99791.23
2022-07-29T19:23:08.590Z,99789.48
2022-07-29T19:25:53.815Z,99788.06
2022-07-29T19:28:22.651Z,99785.27
2022-07-29T19:30:52.564Z,99783.01
2022-07-29T19:33:49.338Z,99784.06
2022-07-29T19:36:20.254Z,99785.53
2022-07-29T19:38:50.642Z,99784.59
2022-07-29T19:41:30.241Z,99778.95
2022-07-29T19:44:12.088Z,99778.70
2022-07-29T19:46:40.034Z,99777.58
2022-07-29T19:49:07.298Z,99780.73
2022-07-29T19:51:40.299Z,99778.55
2022-07-29T19:54:17.940Z,99776.52
2022-07-29T19:56:47.059Z,99778.71
2022-07-29T19:59:43.087Z,99778.38
2022-07-29T20:02:17.402Z,99786.26
2022-07-29T20:04:54.377Z,99789.91
2022-07-29T20:07:52.981Z,99793.36
2022-07-29T20:10:20.644Z,99797.42
2022-07-29T20:12:55.067Z,99800.89
2022-07-29T20:15:22.711Z,99798.48
2022-07-29T20:17:53.979Z,99799.65
2022-07-29T20:20:29.394Z,99802.64
2022-07-29T20:22:57.141Z,99802.91
2022-07-29T20:25:29.651Z,99799.88
2022-07-29T20:27:57.072Z,99797.41
2022-07-29T20:30:33.523Z,99795.35
2022-07-29T20:33:06.555Z,99799.79
2022-07-29T20:35:38.826Z,99809.02
2022-07-29T20:38:06.548Z,99801.23
2022-07-29T20:40:35.392Z,99795.91
2022-07-29T20:43:06.737Z,99795.91
2022-07-29T20:45:38.877Z,99797.80
2022-07-29T20:48:06.470Z,99803.66
2022-07-29T20:50:46.566Z,99809.06
2022-07-29T20:53:16.203Z,99813.55
2022-07-29T20:55:43.534Z,99818.95
2022-07-29T20:58:11.185Z,99821.54
2022-07-29T21:00:48.789Z,99827.35
2022-07-29T21:03:18.943Z,99830.45
2022-07-29T21:05:51.712Z,99828.73
2022-07-29T21:08:19.803Z,99832.82
2022-07-29T21:10:50.137Z,99833.68
2022-07-29T21:13:20.466Z,99832.86
2022-07-29T21:15:51.940Z,99831.57
2022-07-29T21:18:53.766Z,99826.14
2022-07-29T21:21:50.709Z,99826.68
2022-07-29T21:24:20.119Z,99826.87
2022-07-29T21:27:20.165Z,99829.02
2022-07-29T21:29:54.153Z,99826.05
2022-07-29T21:32:29.793Z,99831.27
2022-07-29T21:35:00.703Z,99828.40
2022-07-29T21:37:31.223Z,99826.64
2022-07-29T21:40:01.877Z,99824.20
2022-07-29T21:42:33.503Z,99828.88
2022-07-29T21:45:07.363Z,99831.79
2022-07-29T21:47:34.475Z,99834.52
2022-07-29T21:50:01.474Z,99833.18
2022-07-29T21:52:28.649Z,99836.10
2022-07-29T21:55:04.106Z,99834.23
2022-07-29T21:57:32.025Z,99825.19
2022-07-29T22:00:03.214Z,99823.61
2022-07-29T22:02:34.707Z,99821.86
2022-07-29T22:05:02.789Z,99819.10
2022-07-29T22:07:55.676Z,99818.73
2022-07-29T22:10:27.466Z,99819.10
2022-07-29T22:13:04.084Z,99813.61
2022-07-29T22:15:54.496Z,99808.55
2022-07-29T22:18:24.545Z,99804.77
2022-07-29T22:20:57.041Z,99808.99
2022-07-29T22:23:30.551Z,99804.81
2022-07-29T22:25:58.414Z,99798.88
2022-07-29T22:28:26.046Z,99792.66
2022-07-29T22:31:19.713Z,99787.56
2022-07-29T22:34:12.749Z,99784.34
2022-07-29T22:36:43.569Z,99785.63
2022-07-29T22:39:11.034Z,99780.39
2022-07-29T22:41:46.231Z,99774.52
2022-07-29T22:44:24.508Z,99768.66
2022-07-29T22:46:54.787Z,99765.66
2022-07-29T22:49:25.028Z,99771.10
2022-07-29T22:51:55.844Z,99769.65
2022-07-29T22:54:28.525Z,99770.23
2022-07-29T22:56:59.052Z,99770.27
2022-07-29T22:59:26.512Z,99764.73
2022-07-29T23:02:12.417Z,99767.61
2022-07-29T23:04:46.997Z,99771.16
2022-07-29T23:07:15.964Z,99772.44
2022-07-29T23:09:57.831Z,99770.76
2022-07-29T23:12:30.900Z,99766.77
2022-07-29T23:15:04.416Z,99769.20
2022-07-29T23:17:39.946Z,99769.38
2022-07-29T23:20:14.850Z,99770.44
2022-07-29T23:23:07.088Z,99767.36
2022-07-29T23:25:51.869Z,99766.55
2022-07-29T23:28:35.017Z,99763.45
2022-07-29T23:31:13.153Z,99769.24
2022-07-29T23:33:53.124Z,99771.91
2022-07-29T23:36:26.176Z,99768.02
2022-07-29T23:39:09.638Z,99765.34
2022-07-29T23:41:40.038Z,99764.32
2022-07-29T23:44:34.335Z,99761.61
2022-07-29T23:47:28.617Z,99762.21
2022-07-29T23:50:12.040Z,99756.20
2022-07-29T23:52:50.910Z,99750.23
2022-07-29T23:55:36.665Z,99745.92
2022-07-29T23:58:10.994Z,99737.16
